sensor_id;sensor_type;location;lat;lon;timestamp;pressure;altitude;pressure_sealevel;temperature;humidity
9855;BME280;4966;48.112;9.282;2023-11-21T00:02:25;94171.31;;;7.33;88.09
9855;BME280;4966;48.112;9.282;2023-11-21T00:04:50;94169.81;;;7.23;88.98
9855;BME280;4966;48.112;9.282;2023-11-21T00:07:17;94179.97;;;7.27;88.99
9855;BME280;4966;48.112;9.282;2023-11-21T00:09:42;94169.34;;;7.42;88.65
9855;BME280;4966;48.112;9.282;2023-11-21T00:12:08;94170.00;;;7.39;88.35
9855;BME280;4966;48.112;9.282;2023-11-21T00:14:37;94166.44;;;7.48;88.44
9855;BME280;4966;48.112;9.282;2023-11-21T00:17:03;94162.75;;;7.52;88.02
9855;BME280;4966;48.112;9.282;2023-11-21T00:19:28;94165.16;;;7.66;87.75
9855;BME280;4966;48.112;9.282;2023-11-21T00:21:54;94162.16;;;7.80;87.17
9855;BME280;4966;48.112;9.282;2023-11-21T00:24:19;94159.88;;;7.70;87.36
9855;BME280;4966;48.112;9.282;2023-11-21T00:26:44;94163.06;;;7.72;87.25
9855;BME280;4966;48.112;9.282;2023-11-21T00:29:10;94165.50;;;7.64;87.73
9855;BME280;4966;48.112;9.282;2023-11-21T00:31:36;94162.31;;;7.83;87.02
9855;BME280;4966;48.112;9.282;2023-11-21T00:34:03;94164.88;;;7.80;86.51
9855;BME280;4966;48.112;9.282;2023-11-21T00:36:30;94161.31;;;7.88;85.60
9855;BME280;4966;48.112;9.282;2023-11-21T00:38:56;94159.72;;;7.87;86.09
9855;BME280;4966;48.112;9.282;2023-11-21T00:41:21;94154.66;;;7.85;85.92
9855;BME280;4966;48.112;9.282;2023-11-21T00:43:46;94158.97;;;7.99;85.79
9855;BME280;4966;48.112;9.282;2023-11-21T00:46:12;94156.72;;;8.01;85.94
9855;BME280;4966;48.112;9.282;2023-11-21T00:48:37;94160.75;;;7.95;86.18
9855;BME280;4966;48.112;9.282;2023-11-21T00:51:02;94151.22;;;8.09;85.67
9855;BME280;4966;48.112;9.282;2023-11-21T00:53:28;94164.06;;;8.00;85.86
9855;BME280;4966;48.112;9.282;2023-11-21T00:55:53;94155.41;;;8.07;85.53
9855;BME280;4966;48.112;9.282;2023-11-21T00:58:24;94152.09;;;8.01;85.77
9855;BME280;4966;48.112;9.282;2023-11-21T01:00:50;94153.13;;;8.09;85.73
9855;BME280;4966;48.112;9.282;2023-11-21T01:03:15;94157.75;;;8.08;85.53
9855;BME280;4966;48.112;9.282;2023-11-21T01:05:40;94168.09;;;7.94;85.95
9855;BME280;4966;48.112;9.282;2023-11-21T01:08:06;94153.56;;;7.99;85.85
9855;BME280;4966;48.112;9.282;2023-11-21T01:10:31;94172.00;;;7.84;86.71
9855;BME280;4966;48.112;9.282;2023-11-21T01:12:56;94166.06;;;7.91;86.84
9855;BME280;4966;48.112;9.282;2023-11-21T01:15:23;94164.81;;;7.88;87.00
9855;BME280;4966;48.112;9.282;2023-11-21T01:17:48;94158.66;;;8.00;86.25
9855;BME280;4966;48.112;9.282;2023-11-21T01:20:13;94154.03;;;8.13;86.13
9855;BME280;4966;48.112;9.282;2023-11-21T01:22:39;94160.22;;;8.01;86.43
9855;BME280;4966;48.112;9.282;2023-11-21T01:25:05;94154.59;;;8.06;86.43
9855;BME280;4966;48.112;9.282;2023-11-21T01:27:33;94158.50;;;7.97;86.81
9855;BME280;4966;48.112;9.282;2023-11-21T01:29:59;94161.09;;;7.93;87.30
9855;BME280;4966;48.112;9.282;2023-11-21T01:32:25;94179.47;;;7.87;87.66
9855;BME280;4966;48.112;9.282;2023-11-21T01:34:50;94163.34;;;7.91;87.80
9855;BME280;4966;48.112;9.282;2023-11-21T01:37:16;94161.88;;;7.94;87.79
9855;BME280;4966;48.112;9.282;2023-11-21T01:39:43;94155.59;;;8.02;87.59
9855;BME280;4966;48.112;9.282;2023-11-21T01:42:09;94160.91;;;7.77;88.79
9855;BME280;4966;48.112;9.282;2023-11-21T01:44:34;94161.44;;;7.92;88.79
9855;BME280;4966;48.112;9.282;2023-11-21T01:46:59;94167.53;;;7.88;88.36
9855;BME280;4966;48.112;9.282;2023-11-21T01:49:30;94164.91;;;7.92;88.18
9855;BME280;4966;48.112;9.282;2023-11-21T01:51:56;94164.38;;;7.99;88.28
9855;BME280;4966;48.112;9.282;2023-11-21T01:54:22;94163.81;;;7.93;87.99
9855;BME280;4966;48.112;9.282;2023-11-21T01:56:47;94156.13;;;7.83;88.80
9855;BME280;4966;48.112;9.282;2023-11-21T01:59:18;94150.28;;;7.93;88.49
9855;BME280;4966;48.112;9.282;2023-11-21T02:01:44;94148.13;;;7.99;88.28
9855;BME280;4966;48.112;9.282;2023-11-21T02:04:12;94154.75;;;7.89;88.35
9855;BME280;4966;48.112;9.282;2023-11-21T02:06:37;94159.28;;;7.97;88.43
9855;BME280;4966;48.112;9.282;2023-11-21T02:09:04;94146.13;;;8.08;88.00
9855;BME280;4966;48.112;9.282;2023-11-21T02:11:30;94146.22;;;7.99;88.39
9855;BME280;4966;48.112;9.282;2023-11-21T02:13:55;94146.00;;;8.04;88.35
9855;BME280;4966;48.112;9.282;2023-11-21T02:16:21;94155.00;;;7.96;88.35
9855;BME280;4966;48.112;9.282;2023-11-21T02:18:47;94153.31;;;7.92;88.87
9855;BME280;4966;48.112;9.282;2023-11-21T02:21:14;94151.59;;;7.87;88.95
9855;BME280;4966;48.112;9.282;2023-11-21T02:23:39;94156.47;;;7.94;88.81
9855;BME280;4966;48.112;9.282;2023-11-21T02:26:09;94155.53;;;7.89;89.14
9855;BME280;4966;48.112;9.282;2023-11-21T02:28:35;94152.84;;;7.89;89.28
9855;BME280;4966;48.112;9.282;2023-11-21T02:31:00;94138.06;;;7.87;89.10
9855;BME280;4966;48.112;9.282;2023-11-21T02:33:28;94150.91;;;7.90;89.41
9855;BME280;4966;48.112;9.282;2023-11-21T02:35:53;94139.19;;;7.86;89.72
9855;BME280;4966;48.112;9.282;2023-11-21T02:38:20;94147.84;;;7.79;90.01
9855;BME280;4966;48.112;9.282;2023-11-21T02:40:46;94141.78;;;7.95;89.66
9855;BME280;4966;48.112;9.282;2023-11-21T02:43:11;94135.03;;;7.88;89.54
9855;BME280;4966;48.112;9.282;2023-11-21T02:45:36;94128.97;;;8.04;89.46
9855;BME280;4966;48.112;9.282;2023-11-21T02:48:02;94133.81;;;7.98;89.41
9855;BME280;4966;48.112;9.282;2023-11-21T02:50:27;94133.03;;;7.64;90.97
9855;BME280;4966;48.112;9.282;2023-11-21T02:52:53;94127.31;;;7.78;91.29
9855;BME280;4966;48.112;9.282;2023-11-21T02:55:18;94126.78;;;7.97;90.46
9855;BME280;4966;48.112;9.282;2023-11-21T02:57:44;94123.94;;;7.81;91.46
9855;BME280;4966;48.112;9.282;2023-11-21T03:00:09;94121.06;;;7.44;94.15
9855;BME280;4966;48.112;9.282;2023-11-21T03:02:38;94122.97;;;7.65;93.67
9855;BME280;4966;48.112;9.282;2023-11-21T03:05:05;94123.69;;;7.74;92.82
9855;BME280;4966;48.112;9.282;2023-11-21T03:07:31;94121.16;;;7.57;93.43
9855;BME280;4966;48.112;9.282;2023-11-21T03:09:56;94117.31;;;7.58;93.96
9855;BME280;4966;48.112;9.282;2023-11-21T03:12:21;94119.44;;;7.52;94.28
9855;BME280;4966;48.112;9.282;2023-11-21T03:14:46;94123.81;;;7.78;92.85
9855;BME280;4966;48.112;9.282;2023-11-21T03:17:12;94118.13;;;7.71;92.87
9855;BME280;4966;48.112;9.282;2023-11-21T03:19:41;94122.56;;;7.75;92.93
9855;BME280;4966;48.112;9.282;2023-11-21T03:22:06;94118.53;;;7.81;92.55
9855;BME280;4966;48.112;9.282;2023-11-21T03:24:32;94121.16;;;7.57;94.00
9855;BME280;4966;48.112;9.282;2023-11-21T03:26:57;94120.56;;;7.84;92.76
9855;BME280;4966;48.112;9.282;2023-11-21T03:29:22;94113.97;;;7.73;93.12
9855;BME280;4966;48.112;9.282;2023-11-21T03:31:48;94111.97;;;7.82;92.15
9855;BME280;4966;48.112;9.282;2023-11-21T03:34:24;94107.38;;;7.83;92.11
9855;BME280;4966;48.112;9.282;2023-11-21T03:36:51;94109.44;;;7.65;93.21
9855;BME280;4966;48.112;9.282;2023-11-21T03:39:16;94117.84;;;7.84;91.95
9855;BME280;4966;48.112;9.282;2023-11-21T03:41:41;94119.34;;;7.61;93.49
9855;BME280;4966;48.112;9.282;2023-11-21T03:44:07;94118.81;;;7.67;92.56
9855;BME280;4966;48.112;9.282;2023-11-21T03:46:32;94122.66;;;7.66;93.15
9855;BME280;4966;48.112;9.282;2023-11-21T03:48:57;94123.66;;;7.41;95.17
9855;BME280;4966;48.112;9.282;2023-11-21T03:51:23;94137.31;;;7.44;94.94
9855;BME280;4966;48.112;9.282;2023-11-21T03:53:48;94124.41;;;7.83;93.14
9855;BME280;4966;48.112;9.282;2023-11-21T03:56:14;94125.56;;;7.61;94.17
9855;BME280;4966;48.112;9.282;2023-11-21T03:58:39;94123.22;;;7.72;93.66
9855;BME280;4966;48.112;9.282;2023-11-21T04:01:05;94131.56;;;7.46;95.64
9855;BME280;4966;48.112;9.282;2023-11-21T04:03:30;94125.47;;;7.70;93.82
9855;BME280;4966;48.112;9.282;2023-11-21T04:05:55;94131.25;;;7.69;93.40
9855;BME280;4966;48.112;9.282;2023-11-21T04:08:20;94121.72;;;7.62;93.80
9855;BME280;4966;48.112;9.282;2023-11-21T04:10:46;94122.19;;;7.64;93.63
9855;BME280;4966;48.112;9.282;2023-11-21T04:13:11;94114.97;;;8.02;91.16
9855;BME280;4966;48.112;9.282;2023-11-21T04:15:36;94115.94;;;7.85;91.40
9855;BME280;4966;48.112;9.282;2023-11-21T04:18:02;94120.44;;;7.81;91.60
9855;BME280;4966;48.112;9.282;2023-11-21T04:20:28;94122.16;;;7.85;91.23
9855;BME280;4966;48.112;9.282;2023-11-21T04:22:53;94131.13;;;7.77;92.05
9855;BME280;4966;48.112;9.282;2023-11-21T04:25:18;94125.63;;;7.74;92.24
9855;BME280;4966;48.112;9.282;2023-11-21T04:27:44;94129.03;;;7.83;92.22
9855;BME280;4966;48.112;9.282;2023-11-21T04:30:11;94130.97;;;7.95;91.55
9855;BME280;4966;48.112;9.282;2023-11-21T04:32:37;94123.84;;;7.90;91.00
9855;BME280;4966;48.112;9.282;2023-11-21T04:35:02;94131.16;;;7.56;93.30
9855;BME280;4966;48.112;9.282;2023-11-21T04:37:29;94133.69;;;7.61;92.93
9855;BME280;4966;48.112;9.282;2023-11-21T04:39:54;94130.88;;;7.70;92.05
9855;BME280;4966;48.112;9.282;2023-11-21T04:42:20;94125.75;;;7.56;93.16
9855;BME280;4966;48.112;9.282;2023-11-21T04:44:45;94131.50;;;7.55;91.94
9855;BME280;4966;48.112;9.282;2023-11-21T04:47:10;94131.41;;;7.63;91.86
9855;BME280;4966;48.112;9.282;2023-11-21T04:49:36;94133.56;;;7.58;92.44
9855;BME280;4966;48.112;9.282;2023-11-21T04:52:01;94139.84;;;7.50;92.29
9855;BME280;4966;48.112;9.282;2023-11-21T04:54:28;94137.50;;;7.60;91.16
9855;BME280;4966;48.112;9.282;2023-11-21T04:56:54;94131.41;;;7.63;92.12
9855;BME280;4966;48.112;9.282;2023-11-21T04:59:19;94133.13;;;7.68;91.45
9855;BME280;4966;48.112;9.282;2023-11-21T05:01:44;94135.78;;;7.77;90.53
9855;BME280;4966;48.112;9.282;2023-11-21T05:04:10;94142.88;;;7.48;92.03
9855;BME280;4966;48.112;9.282;2023-11-21T05:06:35;94146.09;;;7.41;92.61
9855;BME280;4966;48.112;9.282;2023-11-21T05:09:00;94146.34;;;7.49;92.90
9855;BME280;4966;48.112;9.282;2023-11-21T05:11:27;94150.19;;;7.48;92.88
9855;BME280;4966;48.112;9.282;2023-11-21T05:13:53;94149.38;;;7.68;91.62
9855;BME280;4966;48.112;9.282;2023-11-21T05:16:21;94146.81;;;7.51;92.54
9855;BME280;4966;48.112;9.282;2023-11-21T05:18:47;94158.84;;;7.62;91.79
9855;BME280;4966;48.112;9.282;2023-11-21T05:21:12;94148.00;;;7.62;92.31
9855;BME280;4966;48.112;9.282;2023-11-21T05:23:38;94152.94;;;7.81;91.45
9855;BME280;4966;48.112;9.282;2023-11-21T05:26:03;94153.50;;;7.86;91.18
9855;BME280;4966;48.112;9.282;2023-11-21T05:28:29;94154.97;;;7.84;90.63
9855;BME280;4966;48.112;9.282;2023-11-21T05:30:54;94156.75;;;7.80;91.17
9855;BME280;4966;48.112;9.282;2023-11-21T05:33:20;94162.84;;;7.77;91.15
9855;BME280;4966;48.112;9.282;2023-11-21T05:35:45;94160.59;;;7.79;90.65
9855;BME280;4966;48.112;9.282;2023-11-21T05:38:11;94167.13;;;7.78;90.64
9855;BME280;4966;48.112;9.282;2023-11-21T05:40:37;94168.53;;;7.63;91.53
9855;BME280;4966;48.112;9.282;2023-11-21T05:43:02;94169.72;;;7.53;91.36
9855;BME280;4966;48.112;9.282;2023-11-21T05:45:27;94168.00;;;7.70;90.18
9855;BME280;4966;48.112;9.282;2023-11-21T05:47:55;94174.41;;;7.65;90.37
9855;BME280;4966;48.112;9.282;2023-11-21T05:50:20;94175.97;;;7.66;90.83
9855;BME280;4966;48.112;9.282;2023-11-21T05:52:47;94180.28;;;7.67;90.58
9855;BME280;4966;48.112;9.282;2023-11-21T05:55:13;94176.13;;;7.49;92.40
9855;BME280;4966;48.112;9.282;2023-11-21T05:57:40;94174.41;;;7.65;90.97
9855;BME280;4966;48.112;9.282;2023-11-21T06:00:07;94181.00;;;7.76;90.74
9855;BME280;4966;48.112;9.282;2023-11-21T06:02:37;94183.13;;;7.71;90.53
9855;BME280;4966;48.112;9.282;2023-11-21T06:05:03;94181.66;;;7.73;90.11
9855;BME280;4966;48.112;9.282;2023-11-21T06:07:29;94181.47;;;7.78;90.00
9855;BME280;4966;48.112;9.282;2023-11-21T06:09:54;94190.53;;;7.61;90.31
9855;BME280;4966;48.112;9.282;2023-11-21T06:12:20;94195.28;;;7.64;90.92
9855;BME280;4966;48.112;9.282;2023-11-21T06:14:45;94190.44;;;7.70;90.67
9855;BME280;4966;48.112;9.282;2023-11-21T06:17:11;94193.50;;;7.69;90.43
9855;BME280;4966;48.112;9.282;2023-11-21T06:19:36;94195.91;;;7.82;89.97
9855;BME280;4966;48.112;9.282;2023-11-21T06:22:01;94197.72;;;7.78;89.94
9855;BME280;4966;48.112;9.282;2023-11-21T06:24:27;94201.00;;;7.84;90.34
9855;BME280;4966;48.112;9.282;2023-11-21T06:26:53;94199.91;;;7.64;91.53
9855;BME280;4966;48.112;9.282;2023-11-21T06:29:18;94215.44;;;7.76;91.38
9855;BME280;4966;48.112;9.282;2023-11-21T06:31:43;94218.03;;;7.63;92.12
9855;BME280;4966;48.112;9.282;2023-11-21T06:34:09;94214.34;;;7.68;92.08
9855;BME280;4966;48.112;9.282;2023-11-21T06:36:35;94219.13;;;7.71;92.51
9855;BME280;4966;48.112;9.282;2023-11-21T06:39:01;94221.75;;;7.80;91.86
9855;BME280;4966;48.112;9.282;2023-11-21T06:41:26;94220.84;;;7.76;92.46
9855;BME280;4966;48.112;9.282;2023-11-21T06:43:51;94218.19;;;7.67;93.10
9855;BME280;4966;48.112;9.282;2023-11-21T06:46:18;94221.00;;;7.71;92.71
9855;BME280;4966;48.112;9.282;2023-11-21T06:48:45;94224.19;;;7.94;91.74
9855;BME280;4966;48.112;9.282;2023-11-21T06:51:10;94230.47;;;7.85;92.42
9855;BME280;4966;48.112;9.282;2023-11-21T06:53:36;94230.38;;;7.94;91.97
9855;BME280;4966;48.112;9.282;2023-11-21T06:56:02;94234.81;;;7.99;91.86
9855;BME280;4966;48.112;9.282;2023-11-21T06:58:27;94236.06;;;8.01;91.15
9855;BME280;4966;48.112;9.282;2023-11-21T07:00:53;94238.44;;;8.03;91.21
9855;BME280;4966;48.112;9.282;2023-11-21T07:03:18;94237.84;;;7.97;91.87
9855;BME280;4966;48.112;9.282;2023-11-21T07:05:44;94236.88;;;7.81;92.66
9855;BME280;4966;48.112;9.282;2023-11-21T07:08:09;94244.19;;;8.01;91.62
9855;BME280;4966;48.112;9.282;2023-11-21T07:10:35;94242.00;;;7.95;92.20
9855;BME280;4966;48.112;9.282;2023-11-21T07:13:01;94240.09;;;7.95;91.64
9855;BME280;4966;48.112;9.282;2023-11-21T07:15:27;94249.41;;;8.06;91.77
9855;BME280;4966;48.112;9.282;2023-11-21T07:17:53;94250.06;;;8.03;91.63
9855;BME280;4966;48.112;9.282;2023-11-21T07:20:19;94253.81;;;8.11;91.15
9855;BME280;4966;48.112;9.282;2023-11-21T07:22:45;94249.50;;;7.98;92.04
9855;BME280;4966;48.112;9.282;2023-11-21T07:25:10;94255.75;;;7.89;92.58
9855;BME280;4966;48.112;9.282;2023-11-21T07:27:36;94246.38;;;7.87;92.63
9855;BME280;4966;48.112;9.282;2023-11-21T07:30:02;94249.75;;;8.05;92.36
9855;BME280;4966;48.112;9.282;2023-11-21T07:32:31;94256.63;;;8.02;92.21
9855;BME280;4966;48.112;9.282;2023-11-21T07:34:57;94247.63;;;8.10;92.08
9855;BME280;4966;48.112;9.282;2023-11-21T07:37:24;94251.31;;;8.06;92.10
9855;BME280;4966;48.112;9.282;2023-11-21T07:39:53;94244.72;;;7.95;92.30
9855;BME280;4966;48.112;9.282;2023-11-21T07:42:22;94257.00;;;8.13;91.36
9855;BME280;4966;48.112;9.282;2023-11-21T07:44:48;94254.38;;;7.83;92.13
9855;BME280;4966;48.112;9.282;2023-11-21T07:47:15;94241.81;;;8.00;92.16
9855;BME280;4966;48.112;9.282;2023-11-21T07:49:40;94243.41;;;8.34;90.18
9855;BME280;4966;48.112;9.282;2023-11-21T07:52:09;94257.13;;;8.17;90.64
9855;BME280;4966;48.112;9.282;2023-11-21T07:54:34;94260.44;;;8.01;91.37
9855;BME280;4966;48.112;9.282;2023-11-21T07:57:01;94265.22;;;7.83;92.55
9855;BME280;4966;48.112;9.282;2023-11-21T07:59:26;94263.81;;;8.19;91.07
9855;BME280;4966;48.112;9.282;2023-11-21T08:01:51;94260.63;;;8.17;90.72
9855;BME280;4966;48.112;9.282;2023-11-21T08:04:17;94266.09;;;8.08;91.23
9855;BME280;4966;48.112;9.282;2023-11-21T08:06:42;94259.94;;;8.20;90.53
9855;BME280;4966;48.112;9.282;2023-11-21T08:09:07;94261.06;;;8.40;89.65
9855;BME280;4966;48.112;9.282;2023-11-21T08:11:33;94271.19;;;8.31;89.79
9855;BME280;4966;48.112;9.282;2023-11-21T08:13:59;94273.97;;;8.22;90.29
9855;BME280;4966;48.112;9.282;2023-11-21T08:16:25;94274.84;;;8.14;90.51
9855;BME280;4966;48.112;9.282;2023-11-21T08:18:50;94277.94;;;8.46;89.53
9855;BME280;4966;48.112;9.282;2023-11-21T08:21:16;94281.69;;;8.12;91.50
9855;BME280;4966;48.112;9.282;2023-11-21T08:23:41;94274.59;;;8.07;90.97
9855;BME280;4966;48.112;9.282;2023-11-21T08:26:07;94274.44;;;8.24;89.68
9855;BME280;4966;48.112;9.282;2023-11-21T08:28:34;94277.66;;;8.39;88.76
9855;BME280;4966;48.112;9.282;2023-11-21T08:31:00;94286.56;;;8.39;88.80
9855;BME280;4966;48.112;9.282;2023-11-21T08:33:26;94286.63;;;8.51;88.65
9855;BME280;4966;48.112;9.282;2023-11-21T08:35:51;94283.22;;;8.42;88.47
9855;BME280;4966;48.112;9.282;2023-11-21T08:38:17;94289.75;;;8.75;87.62
9855;BME280;4966;48.112;9.282;2023-11-21T08:40:42;94281.22;;;8.51;88.70
9855;BME280;4966;48.112;9.282;2023-11-21T08:43:08;94278.38;;;8.81;88.32
9855;BME280;4966;48.112;9.282;2023-11-21T08:45:33;94280.03;;;8.73;86.67
9855;BME280;4966;48.112;9.282;2023-11-21T08:48:02;94288.53;;;8.84;86.72
9855;BME280;4966;48.112;9.282;2023-11-21T08:50:27;94278.94;;;8.87;87.29
9855;BME280;4966;48.112;9.282;2023-11-21T08:52:53;94278.63;;;9.01;85.95
9855;BME280;4966;48.112;9.282;2023-11-21T08:55:18;94281.88;;;8.94;86.36
9855;BME280;4966;48.112;9.282;2023-11-21T08:57:45;94285.13;;;8.87;86.63
9855;BME280;4966;48.112;9.282;2023-11-21T09:00:12;94284.41;;;8.66;86.48
9855;BME280;4966;48.112;9.282;2023-11-21T09:02:40;94286.81;;;8.80;87.16
9855;BME280;4966;48.112;9.282;2023-11-21T09:05:10;94290.00;;;8.82;87.04
9855;BME280;4966;48.112;9.282;2023-11-21T09:07:36;94286.75;;;9.01;86.01
9855;BME280;4966;48.112;9.282;2023-11-21T09:10:03;94285.28;;;8.91;86.66
9855;BME280;4966;48.112;9.282;2023-11-21T09:12:28;94287.75;;;8.96;87.42
9855;BME280;4966;48.112;9.282;2023-11-21T09:14:53;94297.25;;;9.14;85.92
9855;BME280;4966;48.112;9.282;2023-11-21T09:17:19;94299.88;;;9.48;84.47
9855;BME280;4966;48.112;9.282;2023-11-21T09:19:44;94303.72;;;9.22;84.83
9855;BME280;4966;48.112;9.282;2023-11-21T09:22:14;94307.78;;;9.16;85.67
9855;BME280;4966;48.112;9.282;2023-11-21T09:24:40;94305.75;;;9.25;85.25
9855;BME280;4966;48.112;9.282;2023-11-21T09:27:05;94306.31;;;9.31;85.32
9855;BME280;4966;48.112;9.282;2023-11-21T09:29:30;94312.31;;;9.61;84.15
9855;BME280;4966;48.112;9.282;2023-11-21T09:31:57;94304.66;;;9.51;84.47
9855;BME280;4966;48.112;9.282;2023-11-21T09:34:24;94303.97;;;9.54;83.93
9855;BME280;4966;48.112;9.282;2023-11-21T09:36:50;94312.06;;;9.78;83.25
9855;BME280;4966;48.112;9.282;2023-11-21T09:39:16;94308.47;;;9.50;83.46
9855;BME280;4966;48.112;9.282;2023-11-21T09:41:48;94306.56;;;9.75;82.44
9855;BME280;4966;48.112;9.282;2023-11-21T09:44:18;94307.06;;;9.93;82.36
9855;BME280;4966;48.112;9.282;2023-11-21T09:46:43;94308.06;;;10.00;82.50
9855;BME280;4966;48.112;9.282;2023-11-21T09:49:13;94313.50;;;10.00;81.82
9855;BME280;4966;48.112;9.282;2023-11-21T09:51:39;94308.31;;;9.95;80.83
9855;BME280;4966;48.112;9.282;2023-11-21T09:54:09;94305.50;;;10.45;78.85
9855;BME280;4966;48.112;9.282;2023-11-21T09:56:35;94314.69;;;10.40;78.88
9855;BME280;4966;48.112;9.282;2023-11-21T09:59:01;94306.81;;;10.51;78.69
9855;BME280;4966;48.112;9.282;2023-11-21T10:01:32;94296.34;;;10.25;77.79
9855;BME280;4966;48.112;9.282;2023-11-21T10:03:57;94306.53;;;10.40;77.96
9855;BME280;4966;48.112;9.282;2023-11-21T10:06:25;94302.72;;;10.16;80.22
9855;BME280;4966;48.112;9.282;2023-11-21T10:08:52;94301.38;;;10.10;80.93
9855;BME280;4966;48.112;9.282;2023-11-21T10:11:19;94298.34;;;9.99;80.50
9855;BME280;4966;48.112;9.282;2023-11-21T10:13:46;94301.59;;;10.05;80.91
9855;BME280;4966;48.112;9.282;2023-11-21T10:16:14;94304.94;;;9.98;79.35
9855;BME280;4966;48.112;9.282;2023-11-21T10:18:43;94312.63;;;9.96;79.99
9855;BME280;4966;48.112;9.282;2023-11-21T10:21:09;94311.84;;;9.71;80.87
9855;BME280;4966;48.112;9.282;2023-11-21T10:23:36;94313.34;;;9.32;84.05
9855;BME280;4966;48.112;9.282;2023-11-21T10:26:02;94318.09;;;9.47;84.05
9855;BME280;4966;48.112;9.282;2023-11-21T10:28:27;94313.50;;;10.00;82.61
9855;BME280;4966;48.112;9.282;2023-11-21T10:30:53;94311.22;;;10.15;81.38
9855;BME280;4966;48.112;9.282;2023-11-21T10:33:27;94307.44;;;9.91;81.70
9855;BME280;4966;48.112;9.282;2023-11-21T10:35:52;94311.25;;;10.02;82.29
9855;BME280;4966;48.112;9.282;2023-11-21T10:38:20;94311.28;;;9.78;82.65
9855;BME280;4966;48.112;9.282;2023-11-21T10:40:50;94303.34;;;9.97;83.03
9855;BME280;4966;48.112;9.282;2023-11-21T10:43:16;94313.34;;;10.34;81.99
9855;BME280;4966;48.112;9.282;2023-11-21T10:45:43;94304.94;;;10.39;82.21
9855;BME280;4966;48.112;9.282;2023-11-21T10:48:15;94314.03;;;10.31;82.76
9855;BME280;4966;48.112;9.282;2023-11-21T10:50:41;94312.94;;;10.48;81.27
9855;BME280;4966;48.112;9.282;2023-11-21T10:53:06;94307.22;;;10.65;79.43
9855;BME280;4966;48.112;9.282;2023-11-21T10:55:34;94309.88;;;10.77;78.95
9855;BME280;4966;48.112;9.282;2023-11-21T10:58:04;94313.59;;;10.85;79.77
9855;BME280;4966;48.112;9.282;2023-11-21T11:00:30;94320.59;;;10.86;78.44
9855;BME280;4966;48.112;9.282;2023-11-21T11:02:56;94308.88;;;10.98;78.05
9855;BME280;4966;48.112;9.282;2023-11-21T11:05:23;94309.41;;;10.59;78.07
9855;BME280;4966;48.112;9.282;2023-11-21T11:07:56;94309.66;;;10.54;78.35
9855;BME280;4966;48.112;9.282;2023-11-21T11:10:28;94311.53;;;10.82;78.45
9855;BME280;4966;48.112;9.282;2023-11-21T11:12:54;94310.94;;;10.89;76.16
9855;BME280;4966;48.112;9.282;2023-11-21T11:15:21;94316.75;;;10.87;75.29
9855;BME280;4966;48.112;9.282;2023-11-21T11:17:48;94316.00;;;10.74;75.10
9855;BME280;4966;48.112;9.282;2023-11-21T11:20:14;94306.97;;;10.42;77.66
9855;BME280;4966;48.112;9.282;2023-11-21T11:22:54;94307.25;;;10.53;76.46
9855;BME280;4966;48.112;9.282;2023-11-21T11:25:35;94303.03;;;10.39;77.32
9855;BME280;4966;48.112;9.282;2023-11-21T11:28:07;94307.66;;;10.39;78.19
9855;BME280;4966;48.112;9.282;2023-11-21T11:33:51;94305.16;;;9.81;79.47
9855;BME280;4966;48.112;9.282;2023-11-21T11:36:44;94295.34;;;9.64;80.34
9855;BME280;4966;48.112;9.282;2023-11-21T11:39:40;94305.19;;;9.56;80.74
9855;BME280;4966;48.112;9.282;2023-11-21T11:42:16;94305.41;;;9.64;82.38
9855;BME280;4966;48.112;9.282;2023-11-21T11:47:29;94303.41;;;10.13;82.77
9855;BME280;4966;48.112;9.282;2023-11-21T11:50:10;94301.03;;;10.52;80.75
9855;BME280;4966;48.112;9.282;2023-11-21T11:52:44;94305.25;;;10.50;79.40
9855;BME280;4966;48.112;9.282;2023-11-21T11:55:11;94300.25;;;10.52;78.11
9855;BME280;4966;48.112;9.282;2023-11-21T11:57:39;94298.25;;;10.64;78.42
9855;BME280;4966;48.112;9.282;2023-11-21T12:00:12;94299.69;;;10.74;78.11
9855;BME280;4966;48.112;9.282;2023-11-21T12:02:42;94293.31;;;10.82;77.35
9855;BME280;4966;48.112;9.282;2023-11-21T12:05:11;94300.91;;;10.61;77.50
9855;BME280;4966;48.112;9.282;2023-11-21T12:07:57;94297.97;;;10.54;77.95
9855;BME280;4966;48.112;9.282;2023-11-21T12:10:27;94295.53;;;10.49;77.67
9855;BME280;4966;48.112;9.282;2023-11-21T12:12:55;94297.03;;;10.21;78.66
9855;BME280;4966;48.112;9.282;2023-11-21T12:15:21;94298.56;;;10.75;78.11
9855;BME280;4966;48.112;9.282;2023-11-21T12:17:48;94295.63;;;11.12;76.57
9855;BME280;4966;48.112;9.282;2023-11-21T12:20:15;94289.19;;;11.20;74.15
9855;BME280;4966;48.112;9.282;2023-11-21T12:23:02;94292.19;;;11.31;74.47
9855;BME280;4966;48.112;9.282;2023-11-21T12:25:29;94291.84;;;11.33;74.28
9855;BME280;4966;48.112;9.282;2023-11-21T12:27:57;94292.09;;;11.43;73.40
9855;BME280;4966;48.112;9.282;2023-11-21T12:30:31;94294.72;;;11.56;73.81
9855;BME280;4966;48.112;9.282;2023-11-21T12:32:58;94302.13;;;12.06;72.75
9855;BME280;4966;48.112;9.282;2023-11-21T12:35:26;94299.84;;;12.28;70.98
9855;BME280;4966;48.112;9.282;2023-11-21T12:37:53;94300.66;;;12.28;69.97
9855;BME280;4966;48.112;9.282;2023-11-21T12:40:20;94303.84;;;11.79;69.50
9855;BME280;4966;48.112;9.282;2023-11-21T12:42:53;94312.13;;;11.67;70.01
9855;BME280;4966;48.112;9.282;2023-11-21T12:47:47;94309.41;;;11.67;70.70
9855;BME280;4966;48.112;9.282;2023-11-21T12:50:14;94307.28;;;11.13;70.77
9855;BME280;4966;48.112;9.282;2023-11-21T12:52:44;94312.06;;;11.16;71.62
9855;BME280;4966;48.112;9.282;2023-11-21T12:55:20;94304.31;;;11.18;71.22
9855;BME280;4966;48.112;9.282;2023-11-21T12:57:54;94317.41;;;11.28;70.74
9855;BME280;4966;48.112;9.282;2023-11-21T13:00:27;94319.78;;;11.45;70.59
9855;BME280;4966;48.112;9.282;2023-11-21T13:02:57;94328.28;;;11.44;69.57
9855;BME280;4966;48.112;9.282;2023-11-21T13:05:33;94324.94;;;11.35;69.96
9855;BME280;4966;48.112;9.282;2023-11-21T13:08:01;94330.19;;;10.96;72.63
9855;BME280;4966;48.112;9.282;2023-11-21T13:10:29;94329.72;;;10.78;72.18
9855;BME280;4966;48.112;9.282;2023-11-21T13:13:00;94320.72;;;10.90;73.45
9855;BME280;4966;48.112;9.282;2023-11-21T13:15:27;94326.16;;;10.90;73.43
9855;BME280;4966;48.112;9.282;2023-11-21T13:17:53;94326.94;;;10.62;73.58
9855;BME280;4966;48.112;9.282;2023-11-21T13:20:19;94329.16;;;10.72;73.97
9855;BME280;4966;48.112;9.282;2023-11-21T13:22:55;94333.13;;;10.47;74.04
9855;BME280;4966;48.112;9.282;2023-11-21T13:25:30;94334.66;;;10.19;76.72
9855;BME280;4966;48.112;9.282;2023-11-21T13:27:57;94343.56;;;10.45;76.43
9855;BME280;4966;48.112;9.282;2023-11-21T13:30:24;94339.13;;;10.52;77.20
9855;BME280;4966;48.112;9.282;2023-11-21T13:32:59;94338.25;;;10.36;79.08
9855;BME280;4966;48.112;9.282;2023-11-21T13:35:32;94341.91;;;10.56;78.40
9855;BME280;4966;48.112;9.282;2023-11-21T13:38:08;94343.28;;;10.62;76.83